createdAt,value
2023-05-14T00:00:47.355Z,18.83
2023-05-14T00:03:14.133Z,20.58
2023-05-14T00:05:40.888Z,19.45
2023-05-14T00:08:07.626Z,19.65
2023-05-14T00:10:34.218Z,18.67
2023-05-14T00:13:01.188Z,20.37
2023-05-14T00:15:27.788Z,18.95
2023-05-14T00:17:54.339Z,19.13
2023-05-14T00:20:21.320Z,18.60
2023-05-14T00:22:47.949Z,17.38
2023-05-14T00:25:14.538Z,18.50
2023-05-14T00:27:41.163Z,17.85
2023-05-14T00:30:08.235Z,17.45
2023-05-14T00:32:35.115Z,18.02
2023-05-14T00:35:03.197Z,17.05
2023-05-14T00:37:30.115Z,18.17
2023-05-14T00:39:56.677Z,17.48
2023-05-14T00:42:23.200Z,18.48
2023-05-14T00:44:49.988Z,17.05
2023-05-14T00:47:16.826Z,17.45
2023-05-14T00:49:43.789Z,18.17
2023-05-14T00:52:11.669Z,18.85
2023-05-14T00:54:38.449Z,20.73
2023-05-14T00:57:06.675Z,19.20
2023-05-14T00:59:33.680Z,17.63
2023-05-14T01:02:00.551Z,17.87
2023-05-14T01:04:27.556Z,17.17
2023-05-14T01:07:00.226Z,19.70
2023-05-14T01:09:49.765Z,18.25
2023-05-14T01:12:40.646Z,16.50
2023-05-14T01:15:11.172Z,16.40
2023-05-14T01:17:46.309Z,17.10
2023-05-14T01:20:13.446Z,15.73
2023-05-14T01:22:40.003Z,17.90
2023-05-14T01:25:07.312Z,17.02
2023-05-14T01:27:55.267Z,16.87
2023-05-14T01:30:45.515Z,16.98
2023-05-14T01:33:14.591Z,17.55
2023-05-14T01:35:41.708Z,16.20
2023-05-14T01:38:11.670Z,17.85
2023-05-14T01:40:39.368Z,16.00
2023-05-14T01:43:06.442Z,16.52
2023-05-14T01:45:35.981Z,16.73
2023-05-14T01:48:02.666Z,15.73
2023-05-14T01:50:29.315Z,17.88
2023-05-14T01:52:56.580Z,16.33
2023-05-14T01:55:24.498Z,16.13
2023-05-14T01:57:51.996Z,15.73
2023-05-14T02:00:19.052Z,16.77
2023-05-14T02:02:45.782Z,16.05
2023-05-14T02:05:13.105Z,17.00
2023-05-14T02:07:39.684Z,16.75
2023-05-14T02:10:07.113Z,17.70
2023-05-14T02:12:33.765Z,16.83
2023-05-14T02:15:00.349Z,17.52
2023-05-14T02:17:27.080Z,19.13
2023-05-14T02:19:53.593Z,17.70
2023-05-14T02:22:20.128Z,18.27
2023-05-14T02:24:46.854Z,19.00
2023-05-14T02:27:13.477Z,21.27
2023-05-14T02:29:40.006Z,19.50
2023-05-14T02:32:06.872Z,19.20
2023-05-14T02:34:34.697Z,19.20
2023-05-14T02:37:01.286Z,19.35
2023-05-14T02:39:27.805Z,17.45
2023-05-14T02:41:54.443Z,18.43
2023-05-14T02:44:21.116Z,18.23
2023-05-14T02:46:48.250Z,18.48
2023-05-14T02:49:14.753Z,17.05
2023-05-14T02:51:41.277Z,15.88
2023-05-14T02:54:07.766Z,16.40
2023-05-14T02:56:34.281Z,15.32
2023-05-14T02:59:00.991Z,15.52
2023-05-14T03:01:28.010Z,14.02
2023-05-14T03:03:55.440Z,15.20
2023-05-14T03:06:22.097Z,15.67
2023-05-14T03:08:48.624Z,15.43
2023-05-14T03:11:15.221Z,13.23
2023-05-14T03:13:41.747Z,16.20
2023-05-14T03:16:08.289Z,16.35
2023-05-14T03:18:36.668Z,15.33
2023-05-14T03:21:04.024Z,14.95
2023-05-14T03:23:32.074Z,15.55
2023-05-14T03:25:58.899Z,16.40
2023-05-14T03:28:26.056Z,18.65
2023-05-14T03:30:52.910Z,18.90
2023-05-14T03:33:19.669Z,17.25
2023-05-14T03:35:46.211Z,18.95
2023-05-14T03:38:12.689Z,17.23
2023-05-14T03:40:39.139Z,17.88
2023-05-14T03:43:05.956Z,18.43
2023-05-14T03:45:33.466Z,18.58
2023-05-14T03:48:00.040Z,19.75
2023-05-14T03:50:26.719Z,18.95
2023-05-14T03:52:53.552Z,19.15
2023-05-14T03:55:20.474Z,21.63
2023-05-14T03:57:48.527Z,21.23
2023-05-14T04:00:15.649Z,24.55
2023-05-14T04:02:42.880Z,24.50
2023-05-14T04:05:09.691Z,23.33
2023-05-14T04:07:36.373Z,23.57
2023-05-14T04:10:04.706Z,23.30
2023-05-14T04:12:31.507Z,23.58
2023-05-14T04:14:58.629Z,22.00
2023-05-14T04:17:25.779Z,22.02
2023-05-14T04:19:52.384Z,22.50
2023-05-14T04:22:18.987Z,23.80
2023-05-14T04:24:46.118Z,20.05
2023-05-14T04:27:21.410Z,21.35
2023-05-14T04:29:49.055Z,21.80
2023-05-14T04:32:15.867Z,20.60
2023-05-14T04:34:42.448Z,19.52
2023-05-14T04:37:09.047Z,19.30
2023-05-14T04:39:35.953Z,19.70
2023-05-14T04:42:02.689Z,18.70
2023-05-14T04:44:29.359Z,20.13
2023-05-14T04:46:55.873Z,19.23
2023-05-14T04:49:22.364Z,21.02
2023-05-14T04:51:49.437Z,19.90
2023-05-14T04:54:15.976Z,20.10
2023-05-14T04:56:42.667Z,21.10
2023-05-14T04:59:09.322Z,22.30
2023-05-14T05:01:36.316Z,21.00
2023-05-14T05:04:04.304Z,20.75
2023-05-14T05:06:31.737Z,21.45
2023-05-14T05:08:59.531Z,22.17
2023-05-14T05:11:27.172Z,21.27
2023-05-14T05:13:53.853Z,21.95
2023-05-14T05:16:20.405Z,19.50
2023-05-14T05:18:47.243Z,20.38
2023-05-14T05:21:13.733Z,18.50
2023-05-14T05:23:40.318Z,21.25
2023-05-14T05:26:07.005Z,20.33
2023-05-14T05:28:33.517Z,19.30
2023-05-14T05:31:00.198Z,18.77
2023-05-14T05:33:26.855Z,17.10
2023-05-14T05:35:53.346Z,16.70
2023-05-14T05:38:19.882Z,17.05
2023-05-14T05:40:46.454Z,16.80
2023-05-14T05:43:13.938Z,17.15
2023-05-14T05:45:40.859Z,16.43
2023-05-14T05:48:07.414Z,16.40
2023-05-14T05:50:33.947Z,16.65
2023-05-14T05:53:00.544Z,15.90
2023-05-14T05:55:27.254Z,15.30
2023-05-14T05:57:53.937Z,15.57
2023-05-14T06:00:20.995Z,14.77
2023-05-14T06:02:47.827Z,16.20
2023-05-14T06:05:14.513Z,16.90
2023-05-14T06:07:41.236Z,15.85
2023-05-14T06:10:08.268Z,16.50
2023-05-14T06:12:34.808Z,18.05
2023-05-14T06:15:01.364Z,16.45
2023-05-14T06:17:27.922Z,15.68
2023-05-14T06:19:54.638Z,15.40
2023-05-14T06:22:21.261Z,15.00
2023-05-14T06:24:48.081Z,16.58
2023-05-14T06:27:14.924Z,14.88
2023-05-14T06:29:41.491Z,15.85
2023-05-14T06:32:08.551Z,15.73
2023-05-14T06:34:35.129Z,15.60
2023-05-14T06:37:04.186Z,14.15
2023-05-14T06:39:30.867Z,14.95
2023-05-14T06:41:57.521Z,13.95
2023-05-14T06:44:24.024Z,14.88
2023-05-14T06:46:50.598Z,14.93
2023-05-14T06:49:17.201Z,13.82
2023-05-14T06:51:43.769Z,13.20
2023-05-14T06:54:10.318Z,13.80
2023-05-14T06:56:36.973Z,12.68
2023-05-14T06:59:03.533Z,13.03
2023-05-14T07:01:30.591Z,12.10
2023-05-14T07:03:57.463Z,13.23
2023-05-14T07:06:24.190Z,12.40
2023-05-14T07:08:51.055Z,13.07
2023-05-14T07:11:17.660Z,13.15
2023-05-14T07:13:44.372Z,11.73
2023-05-14T07:16:10.962Z,12.75
2023-05-14T07:18:37.623Z,12.70
2023-05-14T07:21:07.559Z,11.93
2023-05-14T07:23:36.343Z,11.60
2023-05-14T07:26:03.421Z,13.05
2023-05-14T07:28:30.166Z,12.05
2023-05-14T07:30:56.946Z,12.65
2023-05-14T07:33:24.398Z,12.57
2023-05-14T07:35:51.353Z,11.48
2023-05-14T07:38:19.955Z,11.95
2023-05-14T07:40:46.520Z,12.35
2023-05-14T07:43:13.227Z,11.73
2023-05-14T07:45:40.099Z,12.03
2023-05-14T07:48:06.835Z,13.07
2023-05-14T07:50:33.600Z,11.98
2023-05-14T07:53:00.118Z,11.85
2023-05-14T07:55:26.829Z,11.90
2023-05-14T07:57:53.355Z,12.73
2023-05-14T08:00:20.277Z,12.32
2023-05-14T08:02:46.914Z,12.43
2023-05-14T08:05:13.973Z,11.07
2023-05-14T08:07:41.448Z,10.65
2023-05-14T08:10:08.619Z,12.03
2023-05-14T08:12:35.336Z,10.75
2023-05-14T08:15:02.496Z,11.02
2023-05-14T08:17:29.186Z,9.95
2023-05-14T08:19:55.704Z,10.02
2023-05-14T08:22:22.420Z,10.70
2023-05-14T08:24:49.006Z,10.75
2023-05-14T08:27:16.669Z,11.52
2023-05-14T08:29:43.254Z,9.50
2023-05-14T08:32:22.205Z,10.20
2023-05-14T08:34:50.793Z,11.03
2023-05-14T08:37:17.340Z,9.82
2023-05-14T08:39:43.849Z,9.00
2023-05-14T08:42:13.046Z,8.82
2023-05-14T08:44:48.328Z,9.27
2023-05-14T08:47:16.138Z,8.93
2023-05-14T08:49:45.367Z,8.90
2023-05-14T08:52:13.074Z,9.25
2023-05-14T08:54:40.887Z,9.55
2023-05-14T08:57:10.375Z,9.18
2023-05-14T08:59:37.547Z,9.73
2023-05-14T09:02:06.376Z,10.05
2023-05-14T09:04:34.559Z,8.10
2023-05-14T09:07:02.619Z,8.15
2023-05-14T09:09:29.654Z,7.75
2023-05-14T09:11:56.183Z,7.70
2023-05-14T09:14:25.638Z,8.18
2023-05-14T09:16:52.542Z,6.68
2023-05-14T09:19:20.805Z,7.20
2023-05-14T09:21:49.086Z,6.38
2023-05-14T09:24:22.714Z,6.93
2023-05-14T09:26:57.166Z,7.43
2023-05-14T09:29:29.050Z,7.47
2023-05-14T09:31:57.204Z,7.38
2023-05-14T09:34:35.145Z,6.85
2023-05-14T09:37:07.604Z,7.00
2023-05-14T09:39:38.842Z,7.13
2023-05-14T09:42:05.975Z,6.80
2023-05-14T09:44:32.748Z,7.53
2023-05-14T09:46:59.351Z,6.72
2023-05-14T09:49:26.065Z,7.23
2023-05-14T09:51:52.826Z,6.20
2023-05-14T09:54:19.517Z,6.95
2023-05-14T09:56:46.218Z,6.57
2023-05-14T09:59:13.092Z,6.15
2023-05-14T10:01:42.925Z,6.17
2023-05-14T10:04:11.227Z,6.32
2023-05-14T10:06:39.557Z,6.60
2023-05-14T10:09:12.715Z,6.80
2023-05-14T10:11:43.896Z,6.35
2023-05-14T10:14:33.621Z,6.40
2023-05-14T10:17:01.714Z,6.97
2023-05-14T10:19:33.212Z,6.43
2023-05-14T10:22:05.167Z,6.13
2023-05-14T10:24:32.676Z,6.13
2023-05-14T10:26:59.352Z,6.60
2023-05-14T10:29:34.653Z,6.07
2023-05-14T10:32:06.178Z,5.85
2023-05-14T10:34:38.497Z,6.60
2023-05-14T10:37:09.306Z,6.78
2023-05-14T10:39:50.917Z,6.70
2023-05-14T10:42:20.429Z,6.07
2023-05-14T10:45:05.953Z,6.43
2023-05-14T10:47:33.230Z,7.22
2023-05-14T10:50:03.482Z,6.63
2023-05-14T10:52:31.031Z,6.83
2023-05-14T10:55:07.766Z,7.53
2023-05-14T10:57:37.829Z,6.10
2023-05-14T11:00:09.986Z,7.07
2023-05-14T11:02:41.461Z,7.05
2023-05-14T11:05:11.745Z,6.27
2023-05-14T11:07:42.108Z,7.15
2023-05-14T11:10:11.234Z,6.50
2023-05-14T11:12:40.669Z,6.22
2023-05-14T11:15:09.589Z,6.55
2023-05-14T11:17:37.725Z,6.03
2023-05-14T11:20:08.202Z,6.60
2023-05-14T11:22:36.610Z,6.57
2023-05-14T11:25:03.669Z,6.05
2023-05-14T11:27:31.220Z,5.78
2023-05-14T11:29:58.172Z,6.17
2023-05-14T11:32:25.845Z,6.35
2023-05-14T11:34:52.607Z,7.30
2023-05-14T11:37:20.393Z,7.05
2023-05-14T11:39:49.332Z,6.78
2023-05-14T11:42:18.630Z,6.63
2023-05-14T11:44:54.099Z,7.80
2023-05-14T11:47:22.221Z,7.43
2023-05-14T11:49:49.650Z,6.80
2023-05-14T11:52:19.550Z,7.13
2023-05-14T11:54:46.532Z,6.70
2023-05-14T11:57:16.443Z,7.10
2023-05-14T11:59:43.717Z,7.32
2023-05-14T12:02:12.813Z,6.90
2023-05-14T12:04:40.218Z,7.25
2023-05-14T12:07:11.968Z,6.63
2023-05-14T12:09:48.958Z,6.45
2023-05-14T12:12:18.725Z,7.53
2023-05-14T12:14:45.712Z,7.18
2023-05-14T12:17:16.518Z,6.97
2023-05-14T12:19:44.243Z,7.10
2023-05-14T12:22:12.096Z,6.43
2023-05-14T12:24:39.263Z,5.90
2023-05-14T12:27:07.269Z,6.07
2023-05-14T12:29:39.674Z,7.00
2023-05-14T12:32:11.109Z,6.27
2023-05-14T12:34:38.246Z,7.30
2023-05-14T12:37:06.315Z,6.75
2023-05-14T12:39:34.206Z,5.90
2023-05-14T12:42:01.322Z,6.28
2023-05-14T12:44:28.536Z,7.93
2023-05-14T12:46:55.480Z,8.48
2023-05-14T12:49:22.065Z,7.85
2023-05-14T12:51:50.057Z,8.18
2023-05-14T12:54:17.728Z,8.38
2023-05-14T12:56:44.384Z,7.53
2023-05-14T12:59:11.135Z,8.63
2023-05-14T13:01:38.397Z,7.57
2023-05-14T13:04:05.824Z,6.85
2023-05-14T13:06:32.771Z,6.55
2023-05-14T13:09:01.734Z,8.07
2023-05-14T13:11:30.450Z,7.70
2023-05-14T13:13:57.072Z,7.50
2023-05-14T13:16:23.731Z,7.40
2023-05-14T13:18:50.480Z,7.53
2023-05-14T13:21:17.276Z,7.33
2023-05-14T13:23:43.816Z,7.60
2023-05-14T13:26:17.022Z,8.45
2023-05-14T13:28:43.570Z,7.95
2023-05-14T13:31:12.661Z,8.05
2023-05-14T13:33:42.456Z,7.27
2023-05-14T13:36:10.564Z,7.90
2023-05-14T13:38:37.982Z,6.20
2023-05-14T13:41:07.644Z,8.75
2023-05-14T13:43:35.889Z,7.32
2023-05-14T13:46:04.321Z,7.90
2023-05-14T13:48:33.833Z,7.60
2023-05-14T13:51:00.732Z,6.10
2023-05-14T13:53:27.406Z,7.50
2023-05-14T13:55:56.669Z,7.35
2023-05-14T13:58:25.596Z,8.23
2023-05-14T14:00:53.237Z,8.45
2023-05-14T14:03:20.174Z,7.05
2023-05-14T14:05:46.900Z,6.68
2023-05-14T14:10:48.615Z,8.07
2023-05-14T14:13:15.267Z,6.85
2023-05-14T14:15:42.625Z,7.78
2023-05-14T14:18:10.172Z,8.20
2023-05-14T14:20:37.074Z,7.53
2023-05-14T14:23:03.656Z,8.47
2023-05-14T14:25:30.656Z,9.77
2023-05-14T14:27:57.448Z,8.25
2023-05-14T14:30:24.015Z,8.93
2023-05-14T14:32:50.981Z,7.72
2023-05-14T14:35:19.782Z,8.87
2023-05-14T14:37:52.382Z,8.13
2023-05-14T14:40:19.022Z,7.90
2023-05-14T14:42:46.683Z,8.27
2023-05-14T14:45:15.195Z,7.53
2023-05-14T14:47:46.873Z,8.37
2023-05-14T14:50:13.672Z,6.80
2023-05-14T14:52:46.202Z,6.43
2023-05-14T14:55:13.119Z,6.35
2023-05-14T14:57:39.927Z,7.00
2023-05-14T15:00:07.490Z,7.13
2023-05-14T15:02:34.857Z,7.10
2023-05-14T15:05:01.577Z,6.40
2023-05-14T15:07:29.622Z,7.65
2023-05-14T15:09:56.152Z,7.35
2023-05-14T15:12:22.644Z,7.83
2023-05-14T15:14:49.136Z,8.10
2023-05-14T15:17:15.756Z,6.88
2023-05-14T15:19:42.448Z,6.75
2023-05-14T15:22:09.055Z,6.60
2023-05-14T15:24:35.834Z,6.73
2023-05-14T15:27:02.490Z,6.95
2023-05-14T15:29:29.085Z,7.60
2023-05-14T15:31:55.845Z,5.85
2023-05-14T15:34:22.373Z,6.18
2023-05-14T15:36:48.915Z,6.43
2023-05-14T15:39:15.495Z,6.80
2023-05-14T15:41:42.132Z,5.90
2023-05-14T15:44:08.765Z,6.20
2023-05-14T15:46:35.773Z,6.53
2023-05-14T15:49:02.397Z,5.60
2023-05-14T15:51:29.074Z,5.97
2023-05-14T15:53:55.670Z,6.30
2023-05-14T15:56:22.952Z,5.57
2023-05-14T15:58:49.860Z,5.68
2023-05-14T16:01:16.665Z,4.97
2023-05-14T16:03:45.486Z,5.50
2023-05-14T16:06:12.420Z,5.38
2023-05-14T16:08:38.911Z,5.75
2023-05-14T16:11:06.431Z,6.32
2023-05-14T16:13:33.500Z,6.40
2023-05-14T16:16:00.238Z,5.93
2023-05-14T16:18:26.882Z,6.15
2023-05-14T16:20:53.634Z,6.57
2023-05-14T16:23:20.243Z,6.50
2023-05-14T16:25:46.848Z,7.37
2023-05-14T16:28:13.631Z,6.30
2023-05-14T16:30:40.240Z,5.72
2023-05-14T16:33:06.868Z,5.80
2023-05-14T16:35:33.568Z,6.60
2023-05-14T16:38:00.149Z,6.40
2023-05-14T16:40:26.801Z,6.68
2023-05-14T16:42:53.379Z,6.35
2023-05-14T16:45:19.841Z,6.78
2023-05-14T16:47:46.385Z,6.70
2023-05-14T16:50:13.188Z,6.73
2023-05-14T16:52:39.771Z,6.55
2023-05-14T16:55:06.639Z,8.52
2023-05-14T16:57:34.317Z,7.60
2023-05-14T17:00:01.230Z,6.70
2023-05-14T17:02:27.845Z,6.83
2023-05-14T17:04:55.379Z,7.80
2023-05-14T17:07:22.188Z,7.93
2023-05-14T17:09:48.755Z,6.72
2023-05-14T17:12:15.456Z,6.85
2023-05-14T17:14:42.046Z,6.90
2023-05-14T17:17:08.728Z,7.63
2023-05-14T17:19:35.351Z,8.32
2023-05-14T17:22:01.913Z,8.40
2023-05-14T17:24:28.569Z,7.35
2023-05-14T17:26:55.080Z,8.23
2023-05-14T17:29:21.650Z,9.13
2023-05-14T17:31:48.726Z,7.65
2023-05-14T17:34:15.530Z,7.80
2023-05-14T17:36:42.086Z,7.10
2023-05-14T17:39:09.137Z,7.50
2023-05-14T17:41:35.653Z,6.88
2023-05-14T17:44:02.222Z,7.00
2023-05-14T17:46:28.833Z,6.38
2023-05-14T17:48:55.403Z,6.47
2023-05-14T17:51:22.012Z,6.18
2023-05-14T17:53:48.621Z,6.53
2023-05-14T17:56:17.571Z,5.75
2023-05-14T17:58:45.398Z,6.22
2023-05-14T18:01:12.122Z,6.23
2023-05-14T18:03:38.799Z,6.50
2023-05-14T18:06:05.825Z,6.75
2023-05-14T18:08:32.297Z,6.68
2023-05-14T18:11:01.014Z,6.05
2023-05-14T18:13:27.645Z,5.67
2023-05-14T18:15:56.459Z,5.82
2023-05-14T18:18:23.988Z,6.82
2023-05-14T18:20:52.099Z,7.00
2023-05-14T18:23:18.796Z,7.45
2023-05-14T18:25:46.035Z,7.20
2023-05-14T18:28:13.088Z,6.88
2023-05-14T18:30:39.922Z,8.32
2023-05-14T18:33:06.775Z,6.55
2023-05-14T18:35:33.462Z,7.78
2023-05-14T18:38:00.173Z,7.33
2023-05-14T18:40:26.714Z,7.10
2023-05-14T18:42:53.432Z,6.72
2023-05-14T18:45:20.294Z,6.15
2023-05-14T18:47:47.934Z,6.95
2023-05-14T18:50:14.572Z,6.00
2023-05-14T18:52:41.186Z,6.07
2023-05-14T18:55:08.435Z,6.45
2023-05-14T18:57:37.070Z,6.20
2023-05-14T19:00:05.145Z,6.97
2023-05-14T19:02:31.784Z,6.53
2023-05-14T19:04:59.057Z,6.38
2023-05-14T19:07:27.213Z,6.80
2023-05-14T19:09:53.746Z,6.35
2023-05-14T19:12:20.251Z,6.63
2023-05-14T19:14:46.730Z,7.57
2023-05-14T19:17:13.273Z,6.40
2023-05-14T19:19:39.804Z,7.40
2023-05-14T19:22:06.760Z,7.47
2023-05-14T19:24:33.400Z,6.50
2023-05-14T19:27:00.011Z,6.67
2023-05-14T19:29:26.567Z,7.30
2023-05-14T19:31:53.153Z,7.35
2023-05-14T19:34:19.782Z,6.90
2023-05-14T19:36:46.415Z,7.40
2023-05-14T19:39:12.962Z,6.67
2023-05-14T19:41:39.479Z,7.18
2023-05-14T19:44:05.981Z,8.38
2023-05-14T19:46:32.651Z,7.80
2023-05-14T19:48:59.208Z,7.45
2023-05-14T19:51:25.729Z,6.70
2023-05-14T19:53:52.303Z,7.78
2023-05-14T19:56:21.808Z,7.70
2023-05-14T19:58:48.541Z,7.63
2023-05-14T20:01:15.236Z,7.40
2023-05-14T20:03:41.891Z,7.17
2023-05-14T20:06:08.566Z,7.55
2023-05-14T20:08:35.112Z,7.60
2023-05-14T20:11:01.934Z,7.63
2023-05-14T20:13:31.771Z,8.52
2023-05-14T20:15:58.759Z,8.50
2023-05-14T20:18:25.509Z,8.88
2023-05-14T20:20:52.036Z,8.35
2023-05-14T20:23:18.665Z,9.00
2023-05-14T20:25:45.201Z,10.23
2023-05-14T20:28:11.931Z,9.23
2023-05-14T20:30:38.479Z,10.00
2023-05-14T20:33:05.040Z,10.15
2023-05-14T20:35:31.535Z,8.25
2023-05-14T20:37:58.616Z,8.85
2023-05-14T20:40:25.414Z,8.60
2023-05-14T20:42:52.251Z,8.80
2023-05-14T20:45:19.074Z,8.45
2023-05-14T20:47:45.628Z,8.80
2023-05-14T20:50:13.713Z,8.63
2023-05-14T20:52:40.506Z,8.53
2023-05-14T20:55:08.172Z,9.63
2023-05-14T20:57:34.710Z,9.57
2023-05-14T21:00:02.424Z,8.57
2023-05-14T21:02:29.143Z,8.45
2023-05-14T21:04:55.872Z,8.57
2023-05-14T21:07:22.421Z,8.18
2023-05-14T21:09:52.341Z,8.88
2023-05-14T21:12:19.618Z,8.65
2023-05-14T21:14:46.401Z,8.73
2023-05-14T21:17:12.916Z,9.87
2023-05-14T21:19:39.625Z,9.27
2023-05-14T21:22:06.801Z,10.82
2023-05-14T21:24:33.270Z,9.48
2023-05-14T21:26:59.940Z,9.82
2023-05-14T21:29:26.587Z,8.80
2023-05-14T21:31:53.120Z,9.82
2023-05-14T21:34:19.843Z,9.55
2023-05-14T21:36:47.011Z,9.73
2023-05-14T21:39:13.889Z,9.32
2023-05-14T21:41:40.504Z,10.37
2023-05-14T21:44:07.001Z,8.95
2023-05-14T21:46:33.824Z,7.90
2023-05-14T21:49:00.563Z,8.35
2023-05-14T21:51:27.310Z,10.00
2023-05-14T21:53:53.829Z,7.47
2023-05-14T21:56:21.083Z,7.63
2023-05-14T21:58:47.593Z,8.05
2023-05-14T22:01:14.238Z,8.43
2023-05-14T22:03:40.773Z,9.32
2023-05-14T22:06:07.453Z,8.00
2023-05-14T22:08:34.180Z,8.43
2023-05-14T22:11:00.743Z,8.48
2023-05-14T22:13:27.252Z,9.07
2023-05-14T22:16:01.396Z,8.75
2023-05-14T22:18:36.617Z,8.33
2023-05-14T22:21:03.728Z,8.27
2023-05-14T22:23:30.249Z,8.45
2023-05-14T22:25:57.425Z,9.35
2023-05-14T22:28:23.989Z,9.75
2023-05-14T22:30:50.477Z,8.83
2023-05-14T22:33:16.970Z,8.27
2023-05-14T22:35:43.584Z,8.77
2023-05-14T22:38:10.076Z,10.27
2023-05-14T22:40:36.576Z,8.80
2023-05-14T22:43:03.113Z,10.10
2023-05-14T22:45:30.610Z,9.52
2023-05-14T22:47:57.097Z,10.27
2023-05-14T22:50:23.684Z,10.40
2023-05-14T22:52:50.173Z,11.27
2023-05-14T22:55:16.693Z,13.03
2023-05-14T22:57:43.400Z,12.60
2023-05-14T23:00:11.141Z,13.00
2023-05-14T23:02:37.697Z,13.57
2023-05-14T23:05:04.523Z,14.02
2023-05-14T23:07:31.220Z,14.40
2023-05-14T23:09:57.744Z,14.25
2023-05-14T23:12:24.250Z,15.25
2023-05-14T23:14:50.806Z,15.70
2023-05-14T23:17:17.979Z,16.55
2023-05-14T23:19:44.576Z,16.67
2023-05-14T23:22:11.132Z,15.80
2023-05-14T23:24:37.583Z,17.30
2023-05-14T23:27:04.119Z,17.63
2023-05-14T23:29:30.698Z,16.02
2023-05-14T23:31:57.191Z,16.93
2023-05-14T23:34:23.736Z,15.57
2023-05-14T23:36:50.734Z,15.32
2023-05-14T23:39:17.425Z,15.85
2023-05-14T23:41:43.966Z,16.08
2023-05-14T23:44:10.445Z,15.80
2023-05-14T23:46:37.149Z,15.77
2023-05-14T23:49:03.908Z,16.13
2023-05-14T23:51:30.516Z,15.52
2023-05-14T23:53:58.658Z,15.45
2023-05-14T23:56:26.213Z,15.03
2023-05-14T23:58:52.926Z,16.17
